Upanema, Brazil
Current Conditions -  °F | °C
As of 3:00 PM on Thursday 23 Oct 2014 (Local Time) from SBMS Reporting Station
Few Clouds Few Clouds  
Wind Chill: 93°   Ceiling: Unl
Heat Index: 101°   Visibility: 6mi
Dew Point: 72°   Wind: 15mph
Humidity: 49%   Direction: 40°NE
Pressure: 29.8"   Gusts: NA
Location:  5.64°S, 37.26°W
Report Text: SBMS 231800Z 04013KT 9999 FEW030 34/22 Q1009
Loading
Personal Weather Stations






























Interactive Weather Map
Tropical Storm Tracking
New forecast layout! Learn more

10-Day Weather Forecast

Advertisements
Track Severe Weather on mobile